Time;durP1;ratioP1;P1;durP2;ratioP2;P2;SDS_P1;SDS_P2;PMS_P1;PMS_P2;Temp;Humidity;BMP_temperature;BMP_pressure;BME280_temperature;BME280_humidity;BME280_pressure;Samples;Min_cycle;Max_cycle;Signal;HPM_P1;HPM_P2
2022/12/13 00:00:45;;;;;;;70.30;32.97;;;;;;;-4.66;86.53;100912.22;5134748;27;20870;-64
2022/12/13 00:03:11;;;;;;;80.63;34.17;;;;;;;-4.69;86.66;100905.28;5134603;27;20416;-64
2022/12/13 00:05:44;;;;;;;71.43;34.20;;;;;;;-4.72;87.24;100908.78;5134446;27;20450;-64
2022/12/13 00:08:10;;;;;;;80.53;32.57;;;;;;;-4.67;86.22;100913.94;5134638;27;20412;-64
2022/12/13 00:10:37;;;;;;;77.87;34.77;;;;;;;-4.68;86.27;100907.00;5134258;27;20459;-64
2022/12/13 00:13:03;;;;;;;78.00;36.27;;;;;;;-4.71;86.54;100910.50;5134220;27;20963;-64
2022/12/13 00:15:30;;;;;;;71.97;32.67;;;;;;;-4.85;86.54;100898.41;5134165;28;20814;-64
2022/12/13 00:17:56;;;;;;;73.53;32.70;;;;;;;-4.92;87.18;100901.03;5134212;28;20437;-64
2022/12/13 00:20:22;;;;;;;79.43;33.87;;;;;;;-4.91;86.22;100894.06;5134245;28;20453;-64
2022/12/13 00:22:51;;;;;;;79.90;34.67;;;;;;;-4.90;86.36;100894.97;5134450;28;20409;-64
2022/12/13 00:25:20;;;;;;;79.20;35.47;;;;;;;-4.92;86.65;100892.34;5134293;28;20454;-64
2022/12/13 00:27:46;;;;;;;74.57;35.97;;;;;;;-5.00;86.99;100895.00;5134117;28;20430;-64
2022/12/13 00:30:12;;;;;;;81.70;35.60;;;;;;;-4.94;86.78;100886.25;5134291;28;20426;-64
2022/12/13 00:32:39;;;;;;;78.77;34.70;;;;;;;-5.03;87.15;100886.31;5134043;28;20434;-64
2022/12/13 00:35:05;;;;;;;83.03;35.17;;;;;;;-5.04;87.44;100881.97;5133969;28;20451;-64
2022/12/13 00:37:31;;;;;;;83.90;36.13;;;;;;;-5.03;87.04;100886.31;5134017;28;20791;-64
2022/12/13 00:39:58;;;;;;;97.90;39.10;;;;;;;-5.02;87.13;100877.63;5134265;28;20795;-64
2022/12/13 00:42:24;;;;;;;84.57;35.23;;;;;;;-5.02;86.69;100882.84;5133958;27;20430;-64
2022/12/13 00:44:50;;;;;;;86.50;37.87;;;;;;;-4.97;86.90;100876.72;5137653;27;20451;-64
2022/12/13 00:47:19;;;;;;;83.67;36.60;;;;;;;-5.13;87.43;100880.28;5138316;27;20943;-64
2022/12/13 00:49:45;;;;;;;84.43;38.63;;;;;;;-5.12;87.24;100874.19;5138002;27;20431;-64
2022/12/13 00:52:12;;;;;;;95.63;36.53;;;;;;;-5.13;87.39;100877.66;5137862;27;20459;-64
2022/12/13 00:54:38;;;;;;;84.33;37.53;;;;;;;-5.08;87.02;100883.72;5137860;27;20450;-64
2022/12/13 00:57:04;;;;;;;89.67;36.57;;;;;;;-5.10;87.20;100880.25;5137918;27;20930;-64
2022/12/13 00:59:31;;;;;;;78.10;36.43;;;;;;;-5.07;86.86;100879.41;5137805;27;20440;-64
2022/12/13 01:01:57;;;;;;;90.27;39.60;;;;;;;-5.08;87.09;100878.50;5138010;27;20521;-64
2022/12/13 01:04:23;;;;;;;90.90;39.50;;;;;;;-5.07;87.04;100868.94;5137698;27;20455;-64
2022/12/13 01:06:52;;;;;;;84.37;37.13;;;;;;;-5.06;87.24;100875.91;5137995;27;20434;-64
2022/12/13 01:09:29;;;;;;;90.00;39.63;;;;;;;-5.07;87.06;100882.00;5137742;27;20425;-64
2022/12/13 01:11:58;;;;;;;82.70;37.77;;;;;;;-5.07;87.35;100876.78;5137825;27;20451;-64
2022/12/13 01:14:26;;;;;;;88.23;39.83;;;;;;;-5.07;86.70;100875.03;5137461;27;20458;-65
2022/12/13 01:16:56;;;;;;;92.77;37.43;;;;;;;-5.08;87.20;100875.03;5137539;27;20425;-64
2022/12/13 01:19:24;;;;;;;94.30;38.10;;;;;;;-5.07;87.20;100884.63;5137680;27;20427;-64
2022/12/13 01:21:55;;;;;;;88.87;38.03;;;;;;;-5.03;87.00;100874.13;5137311;27;20951;-64
2022/12/13 01:24:23;;;;;;;92.77;40.03;;;;;;;-5.05;86.50;100875.00;5137833;27;20445;-65
2022/12/13 01:26:50;;;;;;;85.37;37.33;;;;;;;-5.12;86.90;100876.81;5137854;27;20432;-64
2022/12/13 01:29:16;;;;;;;82.73;37.47;;;;;;;-5.13;86.77;100882.88;5137258;27;20429;-64
2022/12/13 01:31:43;;;;;;;90.37;37.47;;;;;;;-5.16;87.21;100886.38;5137418;27;20458;-64
2022/12/13 01:34:11;;;;;;;94.53;39.57;;;;;;;-5.20;86.62;100882.03;5137370;27;20422;-64
2022/12/13 01:36:40;;;;;;;78.07;36.40;;;;;;;-5.24;87.17;100882.09;5137086;27;20432;-64
2022/12/13 01:39:08;;;;;;;92.63;41.83;;;;;;;-5.22;86.73;100885.53;5137362;27;20428;-64
2022/12/13 01:41:42;;;;;;;88.70;39.93;;;;;;;-5.25;86.57;100880.34;5137070;27;20805;-64
2022/12/13 01:44:45;;;;;;;78.13;37.90;;;;;;;-5.29;86.98;100884.72;5137165;27;20431;-64
2022/12/13 01:47:17;;;;;;;91.67;37.83;;;;;;;-5.29;86.97;100889.03;5137166;27;20444;-64
2022/12/13 01:49:43;;;;;;;75.00;38.73;;;;;;;-5.28;87.12;100896.00;5137197;27;20405;-64
2022/12/13 01:52:12;;;;;;;92.47;40.60;;;;;;;-5.34;86.69;100904.72;5137016;27;20811;-64
2022/12/13 01:54:43;;;;;;;86.00;38.00;;;;;;;-5.42;86.98;100896.06;5136476;27;20442;-65
2022/12/13 01:57:16;;;;;;;90.97;40.13;;;;;;;-5.37;86.81;100891.69;5136785;27;20875;-64
2022/12/13 01:59:43;;;;;;;86.10;37.40;;;;;;;-5.52;87.17;100891.75;5136953;27;20417;-64
2022/12/13 02:02:12;;;;;;;88.77;38.23;;;;;;;-5.45;87.14;100893.47;5137098;27;20423;-64
2022/12/13 02:05:03;;;;;;;83.87;39.10;;;;;;;-5.40;86.95;100895.19;5136781;27;20966;-64
2022/12/13 02:07:32;;;;;;;91.93;38.07;;;;;;;-5.37;86.50;100891.69;5137130;27;20409;-64
2022/12/13 02:10:02;;;;;;;88.60;36.80;;;;;;;-5.42;86.89;100896.94;5136747;27;20803;-64
2022/12/13 02:12:31;;;;;;;92.70;36.70;;;;;;;-5.39;86.55;100893.44;5136261;27;20450;-64
2022/12/13 02:15:01;;;;;;;93.97;37.43;;;;;;;-5.40;86.52;100889.97;5136895;27;20447;-64
2022/12/13 02:17:51;;;;;;;91.10;38.60;;;;;;;-5.42;86.55;100889.09;5136878;27;20414;-64
2022/12/13 02:20:36;;;;;;;99.27;39.83;;;;;;;-5.46;86.25;100896.94;5136390;27;20770;-64
2022/12/13 02:23:31;;;;;;;87.93;37.40;;;;;;;-5.49;86.59;100892.59;5136721;27;20428;-65
2022/12/13 02:26:19;;;;;;;75.50;36.93;;;;;;;-5.54;86.61;100896.97;5136409;27;20445;-64
2022/12/13 02:29:01;;;;;;;83.47;39.33;;;;;;;-5.61;87.13;100895.25;5136375;27;20414;-64
2022/12/13 02:31:51;;;;;;;91.33;39.40;;;;;;;-5.60;86.78;100889.19;5136566;27;20449;-64
2022/12/13 02:34:24;;;;;;;87.27;38.10;;;;;;;-5.61;86.56;100888.28;5098261;27;20816;-64
2022/12/13 02:37:12;;;;;;;79.33;38.13;;;;;;;-5.70;86.86;100887.44;5135965;27;20417;-64
2022/12/13 02:39:52;;;;;;;85.23;38.37;;;;;;;-5.68;86.94;100878.75;5135880;27;20433;-64
2022/12/13 02:42:32;;;;;;;71.37;37.13;;;;;;;-5.75;86.66;100882.25;5136141;27;20433;-64
2022/12/13 02:45:19;;;;;;;94.67;40.53;;;;;;;-5.75;87.23;100882.25;5136064;27;20471;-64
2022/12/13 02:47:48;;;;;;;90.17;38.83;;;;;;;-5.91;86.86;100876.22;5136369;27;20459;-64
2022/12/13 02:50:15;;;;;;;78.30;36.90;;;;;;;-5.86;87.13;100876.22;5136238;27;20417;-64
2022/12/13 02:52:45;;;;;;;79.93;39.13;;;;;;;-5.84;86.86;100874.44;5135937;27;20446;-64
2022/12/13 02:55:14;;;;;;;89.40;38.93;;;;;;;-5.87;86.66;100879.66;5135571;27;20458;-65
2022/12/13 02:57:43;;;;;;;90.00;40.00;;;;;;;-5.89;86.68;100871.88;5136082;27;20869;-64
2022/12/13 03:00:26;;;;;;;80.33;36.67;;;;;;;-5.91;86.45;100868.41;5135777;27;20486;-64
2022/12/13 03:03:10;;;;;;;98.50;40.77;;;;;;;-5.84;86.80;100869.22;5135704;27;20402;-64
2022/12/13 03:09:13;;;;;;;81.57;38.10;;;;;;;-5.95;86.48;100868.44;5135613;27;20413;-64
2022/12/13 03:14:45;;;;;;;80.00;36.67;;;;;;;-5.98;87.09;100866.72;5135099;27;20445;-64
2022/12/13 03:17:15;;;;;;;92.50;37.83;;;;;;;-5.98;87.02;100866.72;5135161;27;20447;-64
2022/12/13 03:19:42;;;;;;;84.90;39.73;;;;;;;-5.96;87.08;100870.19;5135320;27;20404;-64
2022/12/13 03:22:09;;;;;;;88.57;37.67;;;;;;;-6.04;87.51;100858.88;5135214;27;20433;-64
2022/12/13 03:24:35;;;;;;;81.43;35.93;;;;;;;-6.02;87.28;100863.22;5134966;27;20464;-64
2022/12/13 03:27:02;;;;;;;91.60;38.43;;;;;;;-6.05;87.58;100872.81;5135208;27;20426;-64
2022/12/13 03:29:28;;;;;;;104.07;38.73;;;;;;;-6.10;87.28;100858.91;5134927;27;20429;-64
2022/12/13 03:31:54;;;;;;;88.57;39.27;;;;;;;-6.11;87.25;100855.41;5134779;27;20468;-64
2022/12/13 03:34:21;;;;;;;95.77;40.37;;;;;;;-6.07;86.70;100857.16;5134716;27;20448;-65
2022/12/13 03:36:50;;;;;;;86.90;37.53;;;;;;;-5.99;86.56;100862.34;5134827;27;20435;-65
2022/12/13 03:39:18;;;;;;;79.33;36.50;;;;;;;-6.01;87.45;100867.59;5134776;27;20425;-64
2022/12/13 03:41:44;;;;;;;95.30;38.30;;;;;;;-6.02;86.27;100860.63;5134976;27;20803;-64
2022/12/13 03:44:11;;;;;;;99.23;39.43;;;;;;;-5.99;86.78;100860.59;5135102;27;20920;-64
2022/12/13 03:46:37;;;;;;;88.97;39.53;;;;;;;-6.00;86.98;100860.63;5134602;27;20960;-64
2022/12/13 03:49:04;;;;;;;83.30;37.37;;;;;;;-6.01;86.31;100854.53;5134600;27;20429;-64
2022/12/13 03:51:30;;;;;;;78.83;33.90;;;;;;;-6.04;87.25;100861.50;5134710;27;20463;-64
2022/12/13 03:53:56;;;;;;;85.63;37.47;;;;;;;-6.06;87.26;100858.88;5134756;27;20437;-64
2022/12/13 03:56:23;;;;;;;96.33;42.37;;;;;;;-6.08;87.22;100858.03;5134762;27;20428;-64
2022/12/13 03:58:49;;;;;;;84.23;36.47;;;;;;;-6.08;86.23;100857.16;5134432;27;20418;-64
2022/12/13 04:01:16;;;;;;;95.17;39.00;;;;;;;-6.04;86.20;100856.28;5134663;27;20429;-64
2022/12/13 04:03:45;;;;;;;93.50;37.80;;;;;;;-6.05;86.93;100844.13;5134359;27;20482;-64
2022/12/13 04:06:13;;;;;;;88.10;38.30;;;;;;;-6.02;87.05;100847.59;5135407;27;20448;-65
2022/12/13 04:08:48;;;;;;;80.23;35.43;;;;;;;-6.04;86.45;100854.53;5134656;27;20427;-64
2022/12/13 04:14:08;;;;;;;80.87;36.10;;;;;;;-6.05;87.39;100855.41;5134497;27;20409;-65
2022/12/13 04:16:35;;;;;;;76.13;36.27;;;;;;;-6.06;86.50;100852.81;5134472;27;20447;-65
2022/12/13 04:19:01;;;;;;;75.00;34.60;;;;;;;-6.09;86.05;100850.22;5134754;28;20425;-64
2022/12/13 04:21:28;;;;;;;76.20;34.90;;;;;;;-6.12;87.13;100853.69;5134404;28;20961;-64
2022/12/13 04:23:54;;;;;;;77.83;34.30;;;;;;;-6.14;86.29;100851.97;5134161;28;20429;-64
2022/12/13 04:26:26;;;;;;;83.17;34.43;;;;;;;-6.18;85.90;100850.22;5134200;28;20406;-64
2022/12/13 04:28:52;;;;;;;71.10;35.27;;;;;;;-6.21;87.14;100856.31;5134353;28;20428;-64
2022/12/13 04:31:20;;;;;;;82.00;37.10;;;;;;;-6.21;87.14;100853.69;5134538;28;20425;-64
2022/12/13 04:33:46;;;;;;;79.43;34.13;;;;;;;-6.17;86.35;100846.75;5134062;28;20424;-64
2022/12/13 04:36:18;;;;;;;90.80;35.83;;;;;;;-6.28;85.96;100842.41;5134268;28;20802;-64
2022/12/13 04:39:02;;;;;;;69.70;33.93;;;;;;;-6.28;85.66;100849.38;5134328;28;20809;-64
2022/12/13 04:41:51;;;;;;;78.40;34.27;;;;;;;-6.24;85.92;100851.97;5134305;28;20416;-64
2022/12/13 04:44:18;;;;;;;69.87;33.13;;;;;;;-6.24;86.22;100848.50;5134256;28;20452;-64
2022/12/13 04:46:54;;;;;;;67.40;32.80;;;;;;;-6.21;86.18;100840.66;5134442;28;20404;-64
2022/12/13 04:49:26;;;;;;;90.30;36.37;;;;;;;-6.20;86.83;100837.22;5134743;28;20871;-64
2022/12/13 04:51:52;;;;;;;76.90;32.87;;;;;;;-6.19;86.41;100836.31;5134628;28;20456;-64
2022/12/13 04:54:26;;;;;;;86.80;32.03;;;;;;;-6.16;86.43;100830.25;5134093;28;20449;-64
2022/12/13 04:57:02;;;;;;;76.07;34.40;;;;;;;-6.23;86.51;100822.41;5134168;28;20465;-64
2022/12/13 04:59:28;;;;;;;69.50;30.63;;;;;;;-6.23;87.05;100821.56;5133795;28;20434;-64
2022/12/13 05:01:55;;;;;;;84.23;34.07;;;;;;;-6.27;85.79;100825.06;5134063;28;20432;-64
2022/12/13 05:04:21;;;;;;;70.13;31.23;;;;;;;-6.29;85.61;100824.19;5134548;28;20543;-64
2022/12/13 05:06:52;;;;;;;74.93;31.57;;;;;;;-6.28;86.09;100824.16;5133783;28;20444;-64
2022/12/13 05:09:19;;;;;;;63.57;30.07;;;;;;;-6.35;86.98;100825.03;5133717;28;20923;-64
2022/12/13 05:11:45;;;;;;;68.83;29.93;;;;;;;-6.38;86.14;100819.84;5133909;28;20499;-64
2022/12/13 05:14:13;;;;;;;87.33;33.50;;;;;;;-6.38;87.05;100819.00;5134187;28;20428;-64
2022/12/13 05:16:48;;;;;;;76.47;32.93;;;;;;;-6.51;86.58;100816.41;5133961;28;20496;-64
2022/12/13 05:19:15;;;;;;;66.37;32.00;;;;;;;-6.49;85.84;100819.88;5133531;28;20435;-64
2022/12/13 05:21:41;;;;;;;71.13;31.87;;;;;;;-6.50;86.86;100822.47;5133744;28;20432;-64
2022/12/13 05:24:07;;;;;;;71.53;31.00;;;;;;;-6.47;85.63;100823.31;5133733;28;20432;-64
2022/12/13 05:26:35;;;;;;;86.97;33.57;;;;;;;-6.44;85.66;100818.13;5133823;28;20456;-64
2022/12/13 05:29:01;;;;;;;72.47;30.87;;;;;;;-6.42;86.24;100816.41;5134403;27;20795;-64
2022/12/13 05:31:27;;;;;;;72.83;31.97;;;;;;;-6.39;86.60;100820.72;5137182;27;20424;-64
2022/12/13 05:33:54;;;;;;;64.80;28.83;;;;;;;-6.43;85.76;100826.81;5137084;27;20928;-64
2022/12/13 05:36:27;;;;;;;64.47;30.20;;;;;;;-6.47;85.86;100820.72;5137558;27;20410;-64
2022/12/13 05:38:54;;;;;;;64.37;30.17;;;;;;;-6.45;86.40;100818.97;5137307;27;20440;-64
2022/12/13 05:41:25;;;;;;;68.27;28.93;;;;;;;-6.46;86.96;100824.22;5136969;27;20436;-64
2022/12/13 05:43:52;;;;;;;65.37;29.17;;;;;;;-6.47;86.12;100820.72;5137287;27;20415;-64
2022/12/13 05:46:18;;;;;;;71.37;29.23;;;;;;;-6.48;85.68;100811.19;5136835;27;20445;-64
2022/12/13 05:48:45;;;;;;;66.23;30.13;;;;;;;-6.49;86.11;100809.47;5136832;27;20956;-64
2022/12/13 05:51:11;;;;;;;83.20;31.80;;;;;;;-6.47;85.93;100817.25;5137094;27;20425;-64
2022/12/13 05:53:39;;;;;;;61.70;30.53;;;;;;;-6.47;85.21;100820.72;5137001;27;20816;-65
2022/12/13 05:56:06;;;;;;;55.50;30.00;;;;;;;-6.47;86.46;100812.03;5136984;27;20450;-64
2022/12/13 05:58:32;;;;;;;68.60;29.00;;;;;;;-6.45;86.13;100807.69;5136667;27;20429;-64
2022/12/13 06:01:07;;;;;;;62.37;30.20;;;;;;;-6.44;85.67;100812.91;5136640;27;20452;-64
2022/12/13 06:03:34;;;;;;;70.40;29.23;;;;;;;-6.45;86.67;100810.31;5136902;27;20412;-64
2022/12/13 06:06:03;;;;;;;59.30;28.80;;;;;;;-6.43;86.75;100801.63;5136806;27;20448;-65
2022/12/13 06:08:30;;;;;;;63.23;30.63;;;;;;;-6.46;86.76;100808.59;5136543;27;20420;-65
2022/12/13 06:10:58;;;;;;;60.40;28.67;;;;;;;-6.47;86.60;100812.03;5136391;27;20425;-65
2022/12/13 06:13:39;;;;;;;67.97;30.90;;;;;;;-6.46;86.68;100804.22;5136621;27;20448;-65
2022/12/13 06:16:08;;;;;;;61.07;29.90;;;;;;;-6.48;85.92;100819.00;5136361;27;20509;-65
2022/12/13 06:18:50;;;;;;;80.00;30.47;;;;;;;-6.51;86.67;100815.50;5136576;27;20828;-65
2022/12/13 06:21:26;;;;;;;66.67;30.00;;;;;;;-6.51;85.87;100820.72;5136298;27;20447;-65
2022/12/13 06:23:53;;;;;;;69.73;29.47;;;;;;;-6.51;86.09;100811.19;5136699;27;20904;-65
2022/12/13 06:26:19;;;;;;;57.50;28.03;;;;;;;-6.51;85.59;100824.22;5136012;27;20453;-65
2022/12/13 06:28:46;;;;;;;70.53;31.53;;;;;;;-6.50;86.07;100820.72;5136128;27;20477;-65
2022/12/13 06:31:12;;;;;;;73.13;31.50;;;;;;;-6.47;85.96;100823.31;5135989;27;20421;-65
2022/12/13 06:33:38;;;;;;;68.17;30.53;;;;;;;-6.47;85.90;100820.72;5135905;27;20495;-65
2022/12/13 06:36:05;;;;;;;65.97;29.97;;;;;;;-6.43;85.88;100821.59;5136026;27;20447;-64
2022/12/13 06:38:32;;;;;;;63.20;30.57;;;;;;;-6.48;85.33;100805.09;5136435;27;20432;-64
2022/12/13 06:41:25;;;;;;;64.07;28.97;;;;;;;-6.54;85.53;100815.50;5134549;27;20443;-64
2022/12/13 06:43:57;;;;;;;55.43;27.63;;;;;;;-6.56;86.34;100817.25;5135699;27;20475;-64
2022/12/13 06:46:24;;;;;;;54.23;28.77;;;;;;;-6.60;86.24;100821.59;5117233;27;20437;-65
2022/12/13 06:48:51;;;;;;;61.47;29.10;;;;;;;-6.61;85.51;100813.78;5135583;27;20519;-65
2022/12/13 06:51:18;;;;;;;62.50;28.27;;;;;;;-6.63;86.50;100819.88;5135601;27;20436;-64
2022/12/13 06:53:49;;;;;;;61.50;29.00;;;;;;;-6.54;86.32;100812.91;5135517;27;20953;-64
2022/12/13 06:56:16;;;;;;;64.50;30.10;;;;;;;-6.62;86.07;100823.34;5135479;27;20449;-65
2022/12/13 06:58:42;;;;;;;65.27;29.50;;;;;;;-6.61;86.31;100819.84;5135760;27;20424;-65
2022/12/13 07:01:12;;;;;;;66.90;30.57;;;;;;;-6.58;86.45;100813.78;5135746;27;20420;-65
2022/12/13 07:03:49;;;;;;;71.47;33.53;;;;;;;-6.55;85.94;100811.19;5135479;27;20439;-65
2022/12/13 07:06:19;;;;;;;67.10;32.83;;;;;;;-6.52;87.23;100814.66;5135254;27;20451;-65
2022/12/13 07:08:51;;;;;;;72.00;31.03;;;;;;;-6.54;85.74;100813.78;5135540;27;20439;-65
2022/12/13 07:11:21;;;;;;;63.90;31.87;;;;;;;-6.51;85.76;100816.41;5135559;27;20779;-65
2022/12/13 07:13:47;;;;;;;67.80;31.03;;;;;;;-6.55;86.07;100803.38;5135443;27;21062;-64
2022/12/13 07:16:14;;;;;;;65.30;32.27;;;;;;;-6.53;86.03;100810.31;5135413;27;20448;-65
2022/12/13 07:18:40;;;;;;;74.57;32.87;;;;;;;-6.50;86.82;100815.50;5135118;27;20428;-65
2022/12/13 07:21:09;;;;;;;71.37;33.13;;;;;;;-6.53;86.94;100814.66;5135345;27;20449;-65
2022/12/13 07:23:47;;;;;;;64.43;30.97;;;;;;;-6.53;87.37;100810.31;5135306;27;20405;-65
2022/12/13 07:26:20;;;;;;;73.37;33.33;;;;;;;-6.49;85.72;100813.78;5134871;27;20474;-65
2022/12/13 07:28:46;;;;;;;64.93;30.97;;;;;;;-6.51;87.44;100812.91;5135459;27;20425;-65
2022/12/13 07:31:20;;;;;;;76.93;32.70;;;;;;;-6.47;87.20;100818.09;5134957;27;20440;-65
2022/12/13 07:33:46;;;;;;;76.63;33.03;;;;;;;-6.45;86.77;100818.97;5135540;27;20973;-65
2022/12/13 07:36:19;;;;;;;70.30;31.13;;;;;;;-6.45;86.58;100813.78;5134724;27;20452;-65
2022/12/13 07:38:54;;;;;;;70.50;30.83;;;;;;;-6.38;86.64;100808.56;5135028;27;20424;-65
2022/12/13 07:41:21;;;;;;;72.60;31.97;;;;;;;-6.43;86.17;100819.00;5116622;27;20443;-65
2022/12/13 07:43:50;;;;;;;75.60;33.83;;;;;;;-6.44;87.06;100825.06;5134634;27;20914;-65
2022/12/13 07:46:22;;;;;;;78.70;32.93;;;;;;;-6.42;86.92;100823.31;5134580;27;20818;-65
2022/12/13 07:49:02;;;;;;;69.30;31.10;;;;;;;-6.41;86.35;100825.06;5134898;27;20419;-65
2022/12/13 07:51:29;;;;;;;67.93;32.87;;;;;;;-6.38;86.46;100819.00;5134606;27;20413;-65
2022/12/13 07:53:56;;;;;;;58.53;30.73;;;;;;;-6.36;86.75;100823.31;5134286;27;20457;-65
2022/12/13 07:56:22;;;;;;;66.30;32.43;;;;;;;-6.29;86.99;100832.00;5134692;27;20458;-64
2022/12/13 07:58:49;;;;;;;73.17;33.47;;;;;;;-6.34;87.10;100831.16;5134543;27;20425;-64
2022/12/13 08:01:17;;;;;;;72.70;30.83;;;;;;;-6.30;87.62;100828.50;5134536;27;20424;-64
2022/12/13 08:03:45;;;;;;;66.57;30.00;;;;;;;-6.30;86.90;100835.47;5134559;27;20432;-64
2022/12/13 08:06:12;;;;;;;64.20;31.83;;;;;;;-6.21;87.02;100832.84;5133692;27;20440;-64
2022/12/13 08:08:40;;;;;;;78.53;33.13;;;;;;;-6.19;87.28;100832.88;5132931;27;20466;-64
2022/12/13 08:11:09;;;;;;;80.97;32.50;;;;;;;-6.13;86.39;100840.66;5133026;27;20432;-64
2022/12/13 08:13:37;;;;;;;83.00;33.17;;;;;;;-6.06;86.76;100847.59;5134428;27;20969;-64
2022/12/13 08:16:06;;;;;;;70.20;32.27;;;;;;;-6.00;87.25;100842.38;5134141;28;20441;-65
2022/12/13 08:18:53;;;;;;;69.13;32.80;;;;;;;-5.93;86.80;100843.19;5134779;28;20517;-65
2022/12/13 08:21:40;;;;;;;81.43;31.43;;;;;;;-5.85;87.33;100842.28;5134123;28;20551;-65
2022/12/13 08:24:28;;;;;;;86.17;33.90;;;;;;;-5.85;87.72;100839.69;5134825;28;20481;-65
2022/12/13 08:26:59;;;;;;;92.90;37.73;;;;;;;-5.81;87.54;100843.16;5134560;28;20464;-64
2022/12/13 08:29:26;;;;;;;94.97;41.10;;;;;;;-5.70;87.91;100837.91;5134678;28;20411;-64
2022/12/13 08:32:07;;;;;;;106.63;39.43;;;;;;;-5.71;87.19;100838.78;5134353;28;20874;-65
2022/12/13 08:34:33;;;;;;;100.97;33.87;;;;;;;-5.67;87.81;100837.91;5134081;28;20472;-64
2022/12/13 08:37:00;;;;;;;77.83;33.40;;;;;;;-5.58;87.66;100843.97;5134287;28;20428;-64
2022/12/13 08:39:30;;;;;;;84.10;34.97;;;;;;;-5.47;87.69;100837.81;5134424;28;20907;-64
2022/12/13 08:42:04;;;;;;;85.63;35.30;;;;;;;-5.39;87.17;100849.06;5134367;28;20846;-64
2022/12/13 08:44:48;;;;;;;78.97;33.50;;;;;;;-5.34;87.43;100847.31;5133979;28;20449;-65
2022/12/13 08:47:15;;;;;;;78.43;32.40;;;;;;;-5.28;87.46;100844.69;5115783;28;20425;-65
2022/12/13 08:49:52;;;;;;;87.33;36.57;;;;;;;-5.18;87.32;100841.13;5134251;28;20499;-65
2022/12/13 08:52:20;;;;;;;83.63;34.00;;;;;;;-5.04;87.72;100845.44;5134397;28;20750;-65
2022/12/13 08:54:46;;;;;;;90.80;35.93;;;;;;;-4.90;87.18;100850.56;5134012;28;20481;-65
2022/12/13 08:57:12;;;;;;;88.00;35.43;;;;;;;-4.85;86.98;100852.25;5133841;28;20448;-65
2022/12/13 08:59:39;;;;;;;80.17;36.70;;;;;;;-4.73;87.68;100848.69;5133854;28;20795;-65
2022/12/13 09:02:05;;;;;;;101.57;39.83;;;;;;;-4.58;87.31;100847.72;5134350;28;20439;-65
2022/12/13 09:04:31;;;;;;;90.23;38.93;;;;;;;-4.58;87.03;100848.56;5135164;27;20463;-65
2022/12/13 09:06:58;;;;;;;89.00;36.87;;;;;;;-4.52;86.84;100840.69;5137978;27;20422;-65
2022/12/13 09:09:28;;;;;;;110.77;40.50;;;;;;;-4.47;86.43;100847.66;5137701;27;20437;-65
2022/12/13 09:11:54;;;;;;;106.63;39.03;;;;;;;-4.40;86.39;100841.47;5137926;27;20526;-65
2022/12/13 09:14:25;;;;;;;78.00;38.30;;;;;;;-4.37;87.31;100849.28;5137483;27;20466;-65
2022/12/13 09:16:59;;;;;;;84.40;37.83;;;;;;;-4.27;87.04;100841.34;5138109;27;20789;-65
2022/12/13 09:19:29;;;;;;;85.67;39.87;;;;;;;-4.16;87.00;100843.00;5137510;27;20480;-65
2022/12/13 09:22:03;;;;;;;82.60;36.43;;;;;;;-4.06;87.00;100842.88;5137307;27;20459;-65
2022/12/13 09:24:30;;;;;;;86.13;38.23;;;;;;;-3.94;86.04;100847.13;5137316;27;20443;-65
2022/12/13 09:27:04;;;;;;;89.77;34.40;;;;;;;-3.83;86.90;100857.50;5137638;27;20408;-65
2022/12/13 09:29:36;;;;;;;77.87;36.93;;;;;;;-3.77;86.92;100849.56;5137849;27;20500;-65
2022/12/13 09:32:03;;;;;;;78.70;35.93;;;;;;;-3.72;86.40;100845.13;5137215;27;20424;-65
2022/12/13 09:34:31;;;;;;;70.13;33.20;;;;;;;-3.67;85.22;100838.09;5137028;27;20558;-65
2022/12/13 09:36:58;;;;;;;71.20;34.37;;;;;;;-3.62;86.13;100843.28;5137123;27;20937;-65
2022/12/13 09:39:27;;;;;;;80.53;34.17;;;;;;;-3.52;85.41;100844.03;5137375;27;20515;-65
2022/12/13 09:41:57;;;;;;;79.40;35.87;;;;;;;-3.46;86.16;100839.59;5137621;27;20431;-65
2022/12/13 09:44:37;;;;;;;87.30;34.60;;;;;;;-3.34;86.25;100843.81;5137210;27;20445;-65
2022/12/13 09:47:23;;;;;;;77.40;35.53;;;;;;;-3.23;85.81;100846.31;5137127;27;20401;-65
2022/12/13 09:49:51;;;;;;;81.97;36.07;;;;;;;-3.13;85.47;100844.44;5137223;27;20457;-65
2022/12/13 09:52:22;;;;;;;71.43;33.23;;;;;;;-3.01;84.97;100836.41;5136841;27;20923;-65
2022/12/13 09:54:52;;;;;;;77.63;34.30;;;;;;;-2.96;84.56;100839.81;5136887;27;20838;-65
2022/12/13 09:57:26;;;;;;;84.70;35.57;;;;;;;-2.90;85.95;100842.31;5136714;27;20922;-65
2022/12/13 10:00:07;;;;;;;70.77;32.00;;;;;;;-2.86;84.87;100833.53;5136991;27;20420;-65
2022/12/13 10:02:52;;;;;;;69.47;33.60;;;;;;;-2.76;85.30;100831.63;5137216;27;20417;-65
2022/12/13 10:05:25;;;;;;;76.10;34.83;;;;;;;-2.67;83.98;100826.25;5136547;27;20456;-65
2022/12/13 10:08:12;;;;;;;83.03;36.97;;;;;;;-2.53;83.86;100833.06;5137353;27;20412;-65
2022/12/13 10:10:38;;;;;;;71.10;33.47;;;;;;;-2.51;83.59;100826.00;5136530;27;20404;-65
2022/12/13 10:13:18;;;;;;;71.93;33.67;;;;;;;-2.39;82.30;100825.81;5136736;27;20731;-65
2022/12/13 10:15:55;;;;;;;76.43;35.07;;;;;;;-2.34;82.25;100831.84;5136157;27;20968;-65
2022/12/13 10:18:31;;;;;;;72.10;31.67;;;;;;;-2.23;81.33;100823.78;5136927;27;20886;-65
2022/12/13 10:21:00;;;;;;;75.53;33.53;;;;;;;-2.24;79.89;100815.06;5136520;27;20188;-65
2022/12/13 10:23:27;;;;;;;65.50;31.57;;;;;;;-2.09;79.69;100815.66;5136832;27;20534;-65
2022/12/13 10:26:13;;;;;;;79.70;31.80;;;;;;;-2.01;79.92;100809.41;5137019;27;20212;-65
2022/12/13 10:29:01;;;;;;;66.83;31.67;;;;;;;-1.96;79.13;100812.78;5136504;27;20259;-65
2022/12/13 10:31:28;;;;;;;63.07;30.80;;;;;;;-1.89;78.54;100802.16;5136408;27;20187;-65
2022/12/13 10:33:57;;;;;;;72.37;30.80;;;;;;;-1.77;77.55;100799.31;5136265;27;20239;-65
2022/12/13 10:36:30;;;;;;;56.63;29.53;;;;;;;-1.69;77.11;100800.03;5136016;27;20184;-66
2022/12/13 10:38:57;;;;;;;58.87;28.27;;;;;;;-1.63;77.03;100796.41;5136499;27;20180;-66
2022/12/13 10:41:37;;;;;;;59.30;28.93;;;;;;;-1.58;76.98;100798.06;5136198;27;20638;-65
2022/12/13 10:44:15;;;;;;;67.47;30.37;;;;;;;-1.52;76.79;100804.94;5136125;27;20165;-66
2022/12/13 10:46:47;;;;;;;70.83;32.67;;;;;;;-1.56;75.87;100792.75;5135810;27;20171;-66
2022/12/13 10:49:21;;;;;;;66.73;31.63;;;;;;;-1.46;75.66;100798.66;5136383;27;20178;-66
2022/12/13 10:51:50;;;;;;;63.27;30.20;;;;;;;-1.50;75.77;100787.38;5136016;27;20173;-66
2022/12/13 10:54:30;;;;;;;66.83;31.27;;;;;;;-1.45;75.71;100793.41;5135476;27;20213;-66
2022/12/13 10:57:13;;;;;;;60.07;30.53;;;;;;;-1.46;74.75;100788.16;5136021;27;20269;-66
2022/12/13 10:59:40;;;;;;;63.73;31.47;;;;;;;-1.36;75.13;100779.22;5135578;27;20521;-66
2022/12/13 11:02:28;;;;;;;71.07;32.10;;;;;;;-1.44;73.34;100786.38;5135758;27;20194;-66
2022/12/13 11:04:57;;;;;;;56.07;29.77;;;;;;;-1.46;74.25;100778.56;5135652;27;20571;-66
2022/12/13 11:07:23;;;;;;;51.90;29.63;;;;;;;-1.41;73.75;100775.78;5135934;27;20645;-66
2022/12/13 11:09:49;;;;;;;61.80;29.33;;;;;;;-1.37;73.52;100765.19;5135642;27;20187;-66
2022/12/13 11:12:24;;;;;;;58.00;30.07;;;;;;;-1.36;73.70;100766.09;5135521;27;20268;-66
2022/12/13 11:14:57;;;;;;;63.60;29.47;;;;;;;-1.36;74.14;100761.69;5135357;27;20223;-66
2022/12/13 11:17:25;;;;;;;56.47;29.57;;;;;;;-1.40;74.35;100762.63;5135462;27;20589;-66
2022/12/13 11:19:58;;;;;;;69.30;31.47;;;;;;;-1.41;74.42;100760.03;5135088;27;20179;-66
2022/12/13 11:22:30;;;;;;;59.27;28.73;;;;;;;-1.30;74.04;100752.78;5135691;27;20620;-66
2022/12/13 11:25:04;;;;;;;54.27;29.73;;;;;;;-1.23;74.05;100758.78;5134838;27;20587;-66
2022/12/13 11:27:53;;;;;;;63.10;29.33;;;;;;;-1.18;74.16;100742.00;5134491;27;20235;-66
2022/12/13 11:30:35;;;;;;;59.30;30.23;;;;;;;-1.07;74.13;100741.75;5135161;27;20179;-66
2022/12/13 11:33:33;;;;;;;61.17;27.93;;;;;;;-1.02;74.30;100732.00;5134837;27;20538;-66
2022/12/13 11:36:23;;;;;;;61.43;29.07;;;;;;;-1.01;74.45;100730.22;5109573;27;20228;-66